sensor_id;sensor_type;location;lat;lon;timestamp;P1;durP1;ratioP1;P2;durP2;ratioP2
16770;SDS011;8503;52.472;13.344;2023-03-03T00:00:58;16.70;;;9.38;;
16770;SDS011;8503;52.472;13.344;2023-03-03T00:27:17;13.05;;;7.53;;
16770;SDS011;8503;52.472;13.344;2023-03-03T00:28:47;18.73;;;7.30;;
16770;SDS011;8503;52.472;13.344;2023-03-03T00:30:16;13.27;;;8.32;;
16770;SDS011;8503;52.472;13.344;2023-03-03T00:31:41;16.40;;;8.32;;
16770;SDS011;8503;52.472;13.344;2023-03-03T00:33:06;18.25;;;9.20;;
16770;SDS011;8503;52.472;13.344;2023-03-03T00:34:42;16.33;;;8.32;;
16770;SDS011;8503;52.472;13.344;2023-03-03T00:36:09;18.00;;;9.65;;
16770;SDS011;8503;52.472;13.344;2023-03-03T00:37:53;16.40;;;8.90;;
16770;SDS011;8503;52.472;13.344;2023-03-03T00:39:20;13.02;;;7.57;;
16770;SDS011;8503;52.472;13.344;2023-03-03T00:40:50;17.45;;;8.35;;
16770;SDS011;8503;52.472;13.344;2023-03-03T00:42:14;20.52;;;9.23;;
16770;SDS011;8503;52.472;13.344;2023-03-03T00:43:38;17.38;;;9.13;;
16770;SDS011;8503;52.472;13.344;2023-03-03T00:45:04;17.02;;;8.95;;
16770;SDS011;8503;52.472;13.344;2023-03-03T00:46:39;17.67;;;8.52;;
16770;SDS011;8503;52.472;13.344;2023-03-03T00:48:15;16.83;;;8.95;;
16770;SDS011;8503;52.472;13.344;2023-03-03T00:49:45;15.65;;;8.40;;
16770;SDS011;8503;52.472;13.344;2023-03-03T00:51:09;18.00;;;8.95;;
16770;SDS011;8503;52.472;13.344;2023-03-03T00:52:52;14.68;;;7.70;;
16770;SDS011;8503;52.472;13.344;2023-03-03T00:54:22;18.70;;;9.73;;
16770;SDS011;8503;52.472;13.344;2023-03-03T00:55:45;19.80;;;9.60;;
16770;SDS011;8503;52.472;13.344;2023-03-03T00:57:09;19.08;;;8.88;;
16770;SDS011;8503;52.472;13.344;2023-03-03T00:58:35;16.45;;;7.70;;
16770;SDS011;8503;52.472;13.344;2023-03-03T00:59:58;17.13;;;9.20;;
16770;SDS011;8503;52.472;13.344;2023-03-03T01:01:21;21.10;;;10.90;;
16770;SDS011;8503;52.472;13.344;2023-03-03T01:02:45;16.30;;;9.30;;
16770;SDS011;8503;52.472;13.344;2023-03-03T01:04:09;19.17;;;9.45;;
16770;SDS011;8503;52.472;13.344;2023-03-03T01:05:33;16.70;;;9.35;;
16770;SDS011;8503;52.472;13.344;2023-03-03T01:06:55;16.42;;;8.77;;
16770;SDS011;8503;52.472;13.344;2023-03-03T01:08:19;18.30;;;10.02;;
16770;SDS011;8503;52.472;13.344;2023-03-03T01:09:42;18.88;;;9.20;;
16770;SDS011;8503;52.472;13.344;2023-03-03T01:11:06;16.25;;;9.32;;
16770;SDS011;8503;52.472;13.344;2023-03-03T01:12:31;16.27;;;9.52;;
16770;SDS011;8503;52.472;13.344;2023-03-03T01:13:55;18.45;;;9.35;;
16770;SDS011;8503;52.472;13.344;2023-03-03T01:15:19;13.75;;;7.43;;
16770;SDS011;8503;52.472;13.344;2023-03-03T01:16:41;16.02;;;8.30;;
16770;SDS011;8503;52.472;13.344;2023-03-03T01:18:05;15.32;;;7.68;;
16770;SDS011;8503;52.472;13.344;2023-03-03T01:19:28;16.67;;;9.00;;
16770;SDS011;8503;52.472;13.344;2023-03-03T01:20:52;17.77;;;8.93;;
16770;SDS011;8503;52.472;13.344;2023-03-03T01:22:15;15.00;;;7.90;;
16770;SDS011;8503;52.472;13.344;2023-03-03T01:23:38;17.48;;;8.82;;
16770;SDS011;8503;52.472;13.344;2023-03-03T01:25:01;18.38;;;8.32;;
16770;SDS011;8503;52.472;13.344;2023-03-03T01:26:24;16.45;;;8.10;;
16770;SDS011;8503;52.472;13.344;2023-03-03T01:27:48;14.65;;;8.38;;
16770;SDS011;8503;52.472;13.344;2023-03-03T01:29:12;14.50;;;7.70;;
16770;SDS011;8503;52.472;13.344;2023-03-03T01:30:37;18.08;;;7.85;;
16770;SDS011;8503;52.472;13.344;2023-03-03T01:32:00;16.13;;;8.10;;
16770;SDS011;8503;52.472;13.344;2023-03-03T01:33:23;15.15;;;8.63;;
16770;SDS011;8503;52.472;13.344;2023-03-03T01:34:47;18.00;;;9.60;;
16770;SDS011;8503;52.472;13.344;2023-03-03T01:36:09;15.43;;;8.20;;
16770;SDS011;8503;52.472;13.344;2023-03-03T01:37:33;15.95;;;8.77;;
16770;SDS011;8503;52.472;13.344;2023-03-03T01:39:00;13.57;;;7.93;;
16770;SDS011;8503;52.472;13.344;2023-03-03T01:40:23;16.27;;;8.52;;
16770;SDS011;8503;52.472;13.344;2023-03-03T01:41:48;16.48;;;8.82;;
16770;SDS011;8503;52.472;13.344;2023-03-03T01:43:13;13.73;;;8.13;;
16770;SDS011;8503;52.472;13.344;2023-03-03T01:44:38;18.38;;;9.27;;
16770;SDS011;8503;52.472;13.344;2023-03-03T01:48:03;16.27;;;8.50;;
16770;SDS011;8503;52.472;13.344;2023-03-03T01:49:31;12.95;;;7.88;;
16770;SDS011;8503;52.472;13.344;2023-03-03T01:52:47;16.63;;;8.15;;
16770;SDS011;8503;52.472;13.344;2023-03-03T01:54:11;16.20;;;8.10;;
16770;SDS011;8503;52.472;13.344;2023-03-03T01:55:38;17.00;;;8.55;;
16770;SDS011;8503;52.472;13.344;2023-03-03T01:57:03;16.00;;;9.40;;
16770;SDS011;8503;52.472;13.344;2023-03-03T01:58:30;18.02;;;8.77;;
16770;SDS011;8503;52.472;13.344;2023-03-03T01:59:58;18.45;;;9.35;;
16770;SDS011;8503;52.472;13.344;2023-03-03T02:01:23;15.93;;;9.02;;
16770;SDS011;8503;52.472;13.344;2023-03-03T02:02:48;16.27;;;9.43;;
16770;SDS011;8503;52.472;13.344;2023-03-03T02:04:11;16.77;;;8.68;;
16770;SDS011;8503;52.472;13.344;2023-03-03T02:05:35;19.95;;;9.75;;
16770;SDS011;8503;52.472;13.344;2023-03-03T02:07:00;14.88;;;9.30;;
16770;SDS011;8503;52.472;13.344;2023-03-03T02:08:29;17.60;;;8.60;;
16770;SDS011;8503;52.472;13.344;2023-03-03T02:09:56;16.67;;;8.82;;
16770;SDS011;8503;52.472;13.344;2023-03-03T02:11:21;16.75;;;9.57;;
16770;SDS011;8503;52.472;13.344;2023-03-03T02:12:44;18.58;;;10.27;;
16770;SDS011;8503;52.472;13.344;2023-03-03T02:14:10;18.90;;;10.40;;
16770;SDS011;8503;52.472;13.344;2023-03-03T02:15:34;22.08;;;11.57;;
16770;SDS011;8503;52.472;13.344;2023-03-03T02:16:57;20.23;;;11.23;;
16770;SDS011;8503;52.472;13.344;2023-03-03T02:18:20;18.60;;;10.48;;
16770;SDS011;8503;52.472;13.344;2023-03-03T02:19:46;17.83;;;10.85;;
16770;SDS011;8503;52.472;13.344;2023-03-03T02:21:13;19.08;;;10.13;;
16770;SDS011;8503;52.472;13.344;2023-03-03T02:22:38;17.90;;;10.05;;
16770;SDS011;8503;52.472;13.344;2023-03-03T02:24:06;18.88;;;11.43;;
16770;SDS011;8503;52.472;13.344;2023-03-03T02:25:36;17.38;;;10.07;;
16770;SDS011;8503;52.472;13.344;2023-03-03T02:27:06;21.23;;;10.48;;
16770;SDS011;8503;52.472;13.344;2023-03-03T02:28:31;16.42;;;10.35;;
16770;SDS011;8503;52.472;13.344;2023-03-03T02:29:54;17.73;;;9.95;;
16770;SDS011;8503;52.472;13.344;2023-03-03T02:31:19;18.23;;;9.90;;
16770;SDS011;8503;52.472;13.344;2023-03-03T02:32:43;16.75;;;9.60;;
16770;SDS011;8503;52.472;13.344;2023-03-03T02:34:06;20.23;;;11.10;;
16770;SDS011;8503;52.472;13.344;2023-03-03T02:35:31;18.00;;;9.70;;
16770;SDS011;8503;52.472;13.344;2023-03-03T02:36:55;20.67;;;11.50;;
16770;SDS011;8503;52.472;13.344;2023-03-03T02:38:20;23.20;;;11.25;;
16770;SDS011;8503;52.472;13.344;2023-03-03T02:39:46;21.33;;;11.30;;
16770;SDS011;8503;52.472;13.344;2023-03-03T02:41:10;18.38;;;10.32;;
16770;SDS011;8503;52.472;13.344;2023-03-03T02:42:38;15.30;;;9.30;;
16770;SDS011;8503;52.472;13.344;2023-03-03T02:44:03;22.35;;;11.18;;
16770;SDS011;8503;52.472;13.344;2023-03-03T02:45:27;16.08;;;10.23;;
16770;SDS011;8503;52.472;13.344;2023-03-03T02:46:51;18.25;;;10.48;;
16770;SDS011;8503;52.472;13.344;2023-03-03T02:48:15;21.40;;;11.55;;
16770;SDS011;8503;52.472;13.344;2023-03-03T02:49:37;20.35;;;11.50;;
16770;SDS011;8503;52.472;13.344;2023-03-03T02:51:01;20.30;;;11.52;;
16770;SDS011;8503;52.472;13.344;2023-03-03T02:52:26;19.65;;;10.98;;
16770;SDS011;8503;52.472;13.344;2023-03-03T02:53:50;20.00;;;11.15;;
16770;SDS011;8503;52.472;13.344;2023-03-03T02:55:13;20.55;;;10.85;;
16770;SDS011;8503;52.472;13.344;2023-03-03T02:56:36;22.20;;;12.45;;
16770;SDS011;8503;52.472;13.344;2023-03-03T02:58:01;20.30;;;11.50;;
16770;SDS011;8503;52.472;13.344;2023-03-03T02:59:23;23.33;;;11.75;;
16770;SDS011;8503;52.472;13.344;2023-03-03T03:00:46;20.30;;;11.35;;
16770;SDS011;8503;52.472;13.344;2023-03-03T03:02:09;27.15;;;12.57;;
16770;SDS011;8503;52.472;13.344;2023-03-03T03:03:33;23.58;;;12.27;;
16770;SDS011;8503;52.472;13.344;2023-03-03T03:04:57;19.73;;;10.98;;
16770;SDS011;8503;52.472;13.344;2023-03-03T03:06:19;18.40;;;11.00;;
16770;SDS011;8503;52.472;13.344;2023-03-03T03:07:42;21.50;;;11.45;;
16770;SDS011;8503;52.472;13.344;2023-03-03T03:09:06;23.90;;;11.80;;
16770;SDS011;8503;52.472;13.344;2023-03-03T03:10:31;24.45;;;12.15;;
16770;SDS011;8503;52.472;13.344;2023-03-03T03:11:53;20.25;;;11.82;;
16770;SDS011;8503;52.472;13.344;2023-03-03T03:13:18;22.25;;;11.35;;
16770;SDS011;8503;52.472;13.344;2023-03-03T03:14:41;22.08;;;11.35;;
16770;SDS011;8503;52.472;13.344;2023-03-03T03:16:04;24.25;;;12.32;;
16770;SDS011;8503;52.472;13.344;2023-03-03T03:17:27;22.77;;;12.32;;
16770;SDS011;8503;52.472;13.344;2023-03-03T03:18:51;23.67;;;11.50;;
16770;SDS011;8503;52.472;13.344;2023-03-03T03:20:14;23.38;;;11.15;;
16770;SDS011;8503;52.472;13.344;2023-03-03T03:21:38;22.27;;;11.52;;
16770;SDS011;8503;52.472;13.344;2023-03-03T03:23:01;22.00;;;11.50;;
16770;SDS011;8503;52.472;13.344;2023-03-03T03:24:24;19.77;;;10.90;;
16770;SDS011;8503;52.472;13.344;2023-03-03T03:25:47;24.05;;;11.43;;
16770;SDS011;8503;52.472;13.344;2023-03-03T03:27:10;26.98;;;12.10;;
16770;SDS011;8503;52.472;13.344;2023-03-03T03:28:35;21.80;;;11.85;;
16770;SDS011;8503;52.472;13.344;2023-03-03T03:29:57;23.27;;;12.18;;
16770;SDS011;8503;52.472;13.344;2023-03-03T03:31:21;23.95;;;12.68;;
16770;SDS011;8503;52.472;13.344;2023-03-03T03:32:44;22.40;;;12.25;;
16770;SDS011;8503;52.472;13.344;2023-03-03T03:34:07;22.85;;;11.88;;
16770;SDS011;8503;52.472;13.344;2023-03-03T03:35:31;26.88;;;12.25;;
16770;SDS011;8503;52.472;13.344;2023-03-03T03:36:54;26.15;;;13.13;;
16770;SDS011;8503;52.472;13.344;2023-03-03T03:38:17;27.98;;;12.10;;
16770;SDS011;8503;52.472;13.344;2023-03-03T03:39:40;23.40;;;12.45;;
16770;SDS011;8503;52.472;13.344;2023-03-03T03:41:04;21.35;;;12.02;;
16770;SDS011;8503;52.472;13.344;2023-03-03T03:42:27;20.60;;;10.98;;
16770;SDS011;8503;52.472;13.344;2023-03-03T03:43:51;17.52;;;10.68;;
16770;SDS011;8503;52.472;13.344;2023-03-03T03:45:15;22.38;;;11.23;;
16770;SDS011;8503;52.472;13.344;2023-03-03T03:46:38;20.67;;;10.95;;
16770;SDS011;8503;52.472;13.344;2023-03-03T03:48:00;20.27;;;10.88;;
16770;SDS011;8503;52.472;13.344;2023-03-03T03:49:24;23.23;;;10.75;;
16770;SDS011;8503;52.472;13.344;2023-03-03T03:50:47;20.80;;;11.23;;
16770;SDS011;8503;52.472;13.344;2023-03-03T03:52:11;22.45;;;10.45;;
16770;SDS011;8503;52.472;13.344;2023-03-03T03:53:35;21.90;;;11.13;;
16770;SDS011;8503;52.472;13.344;2023-03-03T03:54:58;18.85;;;9.95;;
16770;SDS011;8503;52.472;13.344;2023-03-03T03:56:21;19.73;;;10.07;;
16770;SDS011;8503;52.472;13.344;2023-03-03T03:57:46;22.38;;;10.43;;
16770;SDS011;8503;52.472;13.344;2023-03-03T03:59:12;18.77;;;10.43;;
16770;SDS011;8503;52.472;13.344;2023-03-03T04:00:36;20.52;;;10.90;;
16770;SDS011;8503;52.472;13.344;2023-03-03T04:02:00;17.25;;;9.75;;
16770;SDS011;8503;52.472;13.344;2023-03-03T04:03:23;18.35;;;10.18;;
16770;SDS011;8503;52.472;13.344;2023-03-03T04:04:48;23.92;;;11.85;;
16770;SDS011;8503;52.472;13.344;2023-03-03T04:06:11;21.67;;;11.73;;
16770;SDS011;8503;52.472;13.344;2023-03-03T04:07:35;23.95;;;11.77;;
16770;SDS011;8503;52.472;13.344;2023-03-03T04:08:58;20.77;;;10.98;;
16770;SDS011;8503;52.472;13.344;2023-03-03T04:10:21;25.23;;;12.60;;
16770;SDS011;8503;52.472;13.344;2023-03-03T04:11:44;27.02;;;13.20;;
16770;SDS011;8503;52.472;13.344;2023-03-03T04:13:07;20.42;;;10.65;;
16770;SDS011;8503;52.472;13.344;2023-03-03T04:14:32;20.95;;;11.68;;
16770;SDS011;8503;52.472;13.344;2023-03-03T04:15:54;24.83;;;11.43;;
16770;SDS011;8503;52.472;13.344;2023-03-03T04:17:18;23.58;;;11.52;;
16770;SDS011;8503;52.472;13.344;2023-03-03T04:18:42;20.80;;;11.02;;
16770;SDS011;8503;52.472;13.344;2023-03-03T04:20:07;21.52;;;11.23;;
16770;SDS011;8503;52.472;13.344;2023-03-03T04:21:32;24.20;;;12.75;;
16770;SDS011;8503;52.472;13.344;2023-03-03T04:22:56;23.50;;;12.05;;
16770;SDS011;8503;52.472;13.344;2023-03-03T04:24:19;23.58;;;12.48;;
16770;SDS011;8503;52.472;13.344;2023-03-03T04:25:44;20.13;;;11.35;;
16770;SDS011;8503;52.472;13.344;2023-03-03T04:27:07;22.10;;;11.05;;
16770;SDS011;8503;52.472;13.344;2023-03-03T04:28:30;28.58;;;12.63;;
16770;SDS011;8503;52.472;13.344;2023-03-03T04:29:55;27.42;;;11.00;;
16770;SDS011;8503;52.472;13.344;2023-03-03T04:31:18;21.80;;;11.15;;
16770;SDS011;8503;52.472;13.344;2023-03-03T04:32:43;26.08;;;11.55;;
16770;SDS011;8503;52.472;13.344;2023-03-03T04:34:07;23.20;;;11.50;;
16770;SDS011;8503;52.472;13.344;2023-03-03T04:35:30;24.42;;;12.20;;
16770;SDS011;8503;52.472;13.344;2023-03-03T04:36:53;25.13;;;11.45;;
16770;SDS011;8503;52.472;13.344;2023-03-03T04:38:17;28.05;;;12.65;;
16770;SDS011;8503;52.472;13.344;2023-03-03T04:39:40;27.70;;;11.95;;
16770;SDS011;8503;52.472;13.344;2023-03-03T04:41:03;22.70;;;10.65;;
16770;SDS011;8503;52.472;13.344;2023-03-03T04:42:26;24.70;;;10.77;;
16770;SDS011;8503;52.472;13.344;2023-03-03T04:43:50;24.30;;;10.32;;
16770;SDS011;8503;52.472;13.344;2023-03-03T04:45:15;23.73;;;11.00;;
16770;SDS011;8503;52.472;13.344;2023-03-03T04:46:37;21.85;;;11.18;;
16770;SDS011;8503;52.472;13.344;2023-03-03T04:48:01;21.58;;;10.27;;
16770;SDS011;8503;52.472;13.344;2023-03-03T04:49:23;17.80;;;9.68;;
16770;SDS011;8503;52.472;13.344;2023-03-03T04:50:47;19.77;;;10.40;;
16770;SDS011;8503;52.472;13.344;2023-03-03T04:52:10;18.25;;;8.95;;
16770;SDS011;8503;52.472;13.344;2023-03-03T04:53:33;19.52;;;9.85;;
16770;SDS011;8503;52.472;13.344;2023-03-03T04:54:57;20.63;;;11.50;;
16770;SDS011;8503;52.472;13.344;2023-03-03T04:56:19;21.52;;;10.48;;
16770;SDS011;8503;52.472;13.344;2023-03-03T04:57:42;18.23;;;10.05;;
16770;SDS011;8503;52.472;13.344;2023-03-03T04:59:05;21.25;;;10.00;;
16770;SDS011;8503;52.472;13.344;2023-03-03T05:00:30;25.70;;;10.82;;
16770;SDS011;8503;52.472;13.344;2023-03-03T05:01:54;20.95;;;9.68;;
16770;SDS011;8503;52.472;13.344;2023-03-03T05:03:16;22.98;;;10.27;;
16770;SDS011;8503;52.472;13.344;2023-03-03T05:04:40;18.17;;;10.50;;
16770;SDS011;8503;52.472;13.344;2023-03-03T05:06:06;22.13;;;10.18;;
16770;SDS011;8503;52.472;13.344;2023-03-03T05:07:30;21.35;;;10.30;;
16770;SDS011;8503;52.472;13.344;2023-03-03T05:08:53;21.75;;;9.77;;
16770;SDS011;8503;52.472;13.344;2023-03-03T05:10:16;21.75;;;10.13;;
16770;SDS011;8503;52.472;13.344;2023-03-03T05:11:39;18.77;;;9.10;;
16770;SDS011;8503;52.472;13.344;2023-03-03T05:13:02;23.35;;;10.25;;
16770;SDS011;8503;52.472;13.344;2023-03-03T05:14:26;20.33;;;10.70;;
16770;SDS011;8503;52.472;13.344;2023-03-03T05:15:51;19.00;;;9.73;;
16770;SDS011;8503;52.472;13.344;2023-03-03T05:17:16;17.63;;;8.90;;
16770;SDS011;8503;52.472;13.344;2023-03-03T05:18:39;17.65;;;9.15;;
16770;SDS011;8503;52.472;13.344;2023-03-03T05:20:02;21.23;;;9.57;;
16770;SDS011;8503;52.472;13.344;2023-03-03T05:21:25;17.48;;;8.75;;
16770;SDS011;8503;52.472;13.344;2023-03-03T05:22:49;20.27;;;9.85;;
16770;SDS011;8503;52.472;13.344;2023-03-03T05:24:13;17.17;;;9.93;;
16770;SDS011;8503;52.472;13.344;2023-03-03T05:25:35;18.30;;;9.77;;
16770;SDS011;8503;52.472;13.344;2023-03-03T05:26:59;28.52;;;10.40;;
16770;SDS011;8503;52.472;13.344;2023-03-03T05:28:23;19.27;;;10.32;;
16770;SDS011;8503;52.472;13.344;2023-03-03T05:29:47;21.80;;;9.68;;
16770;SDS011;8503;52.472;13.344;2023-03-03T05:31:12;20.67;;;9.50;;
16770;SDS011;8503;52.472;13.344;2023-03-03T05:32:36;22.48;;;10.75;;
16770;SDS011;8503;52.472;13.344;2023-03-03T05:33:58;23.88;;;10.27;;
16770;SDS011;8503;52.472;13.344;2023-03-03T05:35:22;20.00;;;9.82;;
16770;SDS011;8503;52.472;13.344;2023-03-03T05:36:45;19.20;;;8.40;;
16770;SDS011;8503;52.472;13.344;2023-03-03T05:38:09;17.50;;;8.75;;
16770;SDS011;8503;52.472;13.344;2023-03-03T05:39:32;20.30;;;9.98;;
16770;SDS011;8503;52.472;13.344;2023-03-03T05:40:55;19.77;;;9.48;;
16770;SDS011;8503;52.472;13.344;2023-03-03T05:42:18;16.38;;;8.10;;
16770;SDS011;8503;52.472;13.344;2023-03-03T05:43:42;19.20;;;9.25;;
16770;SDS011;8503;52.472;13.344;2023-03-03T05:45:06;16.88;;;9.05;;
16770;SDS011;8503;52.472;13.344;2023-03-03T05:46:31;18.65;;;8.95;;
16770;SDS011;8503;52.472;13.344;2023-03-03T05:47:54;15.25;;;9.00;;
16770;SDS011;8503;52.472;13.344;2023-03-03T05:49:18;23.23;;;8.65;;
16770;SDS011;8503;52.472;13.344;2023-03-03T05:50:40;20.05;;;8.90;;
16770;SDS011;8503;52.472;13.344;2023-03-03T05:52:04;17.52;;;8.73;;
16770;SDS011;8503;52.472;13.344;2023-03-03T05:53:29;18.10;;;8.63;;
16770;SDS011;8503;52.472;13.344;2023-03-03T05:54:52;17.10;;;8.80;;
16770;SDS011;8503;52.472;13.344;2023-03-03T05:56:16;15.45;;;8.52;;
16770;SDS011;8503;52.472;13.344;2023-03-03T05:57:39;19.30;;;9.23;;
16770;SDS011;8503;52.472;13.344;2023-03-03T05:59:02;16.63;;;8.35;;
16770;SDS011;8503;52.472;13.344;2023-03-03T06:00:25;13.82;;;7.68;;
16770;SDS011;8503;52.472;13.344;2023-03-03T06:01:55;15.30;;;7.47;;
16770;SDS011;8503;52.472;13.344;2023-03-03T06:03:18;16.73;;;8.38;;
16770;SDS011;8503;52.472;13.344;2023-03-03T06:04:41;19.27;;;9.00;;
16770;SDS011;8503;52.472;13.344;2023-03-03T06:06:05;18.38;;;8.50;;
16770;SDS011;8503;52.472;13.344;2023-03-03T06:07:30;18.25;;;9.57;;
16770;SDS011;8503;52.472;13.344;2023-03-03T06:08:53;17.73;;;9.40;;
16770;SDS011;8503;52.472;13.344;2023-03-03T06:10:17;21.08;;;8.90;;
16770;SDS011;8503;52.472;13.344;2023-03-03T06:11:41;19.17;;;9.50;;
16770;SDS011;8503;52.472;13.344;2023-03-03T06:13:06;17.83;;;8.65;;
16770;SDS011;8503;52.472;13.344;2023-03-03T06:14:29;20.25;;;8.98;;
16770;SDS011;8503;52.472;13.344;2023-03-03T06:15:52;16.50;;;8.98;;
16770;SDS011;8503;52.472;13.344;2023-03-03T06:17:16;19.17;;;8.73;;
16770;SDS011;8503;52.472;13.344;2023-03-03T06:18:40;19.75;;;9.93;;
16770;SDS011;8503;52.472;13.344;2023-03-03T06:20:04;20.42;;;9.48;;
16770;SDS011;8503;52.472;13.344;2023-03-03T06:21:28;23.13;;;9.93;;
16770;SDS011;8503;52.472;13.344;2023-03-03T06:22:52;19.33;;;9.05;;
16770;SDS011;8503;52.472;13.344;2023-03-03T06:24:15;19.52;;;8.73;;
16770;SDS011;8503;52.472;13.344;2023-03-03T06:25:38;19.00;;;8.98;;
16770;SDS011;8503;52.472;13.344;2023-03-03T06:27:02;16.23;;;8.00;;
16770;SDS011;8503;52.472;13.344;2023-03-03T06:28:24;15.80;;;8.63;;
16770;SDS011;8503;52.472;13.344;2023-03-03T06:29:48;20.15;;;8.20;;
16770;SDS011;8503;52.472;13.344;2023-03-03T06:31:10;18.98;;;8.77;;
16770;SDS011;8503;52.472;13.344;2023-03-03T06:32:35;21.73;;;9.80;;
16770;SDS011;8503;52.472;13.344;2023-03-03T06:33:58;19.17;;;9.40;;
16770;SDS011;8503;52.472;13.344;2023-03-03T06:35:22;24.60;;;9.98;;
16770;SDS011;8503;52.472;13.344;2023-03-03T06:36:45;17.60;;;9.35;;
16770;SDS011;8503;52.472;13.344;2023-03-03T06:38:09;24.10;;;11.48;;
16770;SDS011;8503;52.472;13.344;2023-03-03T06:39:32;22.35;;;10.27;;
16770;SDS011;8503;52.472;13.344;2023-03-03T06:40:54;15.77;;;8.27;;
16770;SDS011;8503;52.472;13.344;2023-03-03T06:42:18;14.30;;;7.80;;
16770;SDS011;8503;52.472;13.344;2023-03-03T06:43:45;17.20;;;7.38;;
16770;SDS011;8503;52.472;13.344;2023-03-03T06:45:08;17.10;;;8.35;;
16770;SDS011;8503;52.472;13.344;2023-03-03T06:46:32;20.00;;;8.57;;
16770;SDS011;8503;52.472;13.344;2023-03-03T06:47:57;17.50;;;7.78;;
16770;SDS011;8503;52.472;13.344;2023-03-03T06:49:20;17.38;;;8.02;;
16770;SDS011;8503;52.472;13.344;2023-03-03T06:50:44;14.25;;;7.93;;
16770;SDS011;8503;52.472;13.344;2023-03-03T06:52:09;13.43;;;6.95;;
16770;SDS011;8503;52.472;13.344;2023-03-03T06:53:34;15.63;;;7.28;;
16770;SDS011;8503;52.472;13.344;2023-03-03T06:54:59;18.40;;;7.88;;
16770;SDS011;8503;52.472;13.344;2023-03-03T06:56:23;18.02;;;8.73;;
16770;SDS011;8503;52.472;13.344;2023-03-03T06:57:47;20.17;;;8.52;;
16770;SDS011;8503;52.472;13.344;2023-03-03T06:59:11;13.70;;;8.07;;
16770;SDS011;8503;52.472;13.344;2023-03-03T07:00:36;20.10;;;9.07;;
16770;SDS011;8503;52.472;13.344;2023-03-03T07:02:00;23.13;;;10.00;;
16770;SDS011;8503;52.472;13.344;2023-03-03T07:03:33;22.90;;;10.45;;
16770;SDS011;8503;52.472;13.344;2023-03-03T07:04:56;26.75;;;11.23;;
16770;SDS011;8503;52.472;13.344;2023-03-03T07:06:20;28.42;;;11.15;;
16770;SDS011;8503;52.472;13.344;2023-03-03T07:07:45;22.88;;;11.00;;
16770;SDS011;8503;52.472;13.344;2023-03-03T07:09:09;20.38;;;9.15;;
16770;SDS011;8503;52.472;13.344;2023-03-03T07:10:39;23.15;;;8.88;;
16770;SDS011;8503;52.472;13.344;2023-03-03T07:12:05;21.27;;;10.18;;
16770;SDS011;8503;52.472;13.344;2023-03-03T07:13:31;24.30;;;10.70;;
16770;SDS011;8503;52.472;13.344;2023-03-03T07:14:56;28.27;;;12.23;;
16770;SDS011;8503;52.472;13.344;2023-03-03T07:16:32;26.30;;;11.27;;
16770;SDS011;8503;52.472;13.344;2023-03-03T07:17:55;26.10;;;11.13;;
16770;SDS011;8503;52.472;13.344;2023-03-03T07:19:22;20.42;;;9.27;;
16770;SDS011;8503;52.472;13.344;2023-03-03T07:20:55;20.60;;;10.00;;
16770;SDS011;8503;52.472;13.344;2023-03-03T07:22:19;20.40;;;9.75;;
16770;SDS011;8503;52.472;13.344;2023-03-03T07:23:46;19.77;;;8.77;;
16770;SDS011;8503;52.472;13.344;2023-03-03T07:25:17;20.08;;;9.25;;
16770;SDS011;8503;52.472;13.344;2023-03-03T07:26:43;16.05;;;8.57;;
16770;SDS011;8503;52.472;13.344;2023-03-03T07:28:10;21.33;;;9.95;;
16770;SDS011;8503;52.472;13.344;2023-03-03T07:29:40;20.90;;;9.63;;
16770;SDS011;8503;52.472;13.344;2023-03-03T07:31:04;19.30;;;8.85;;
16770;SDS011;8503;52.472;13.344;2023-03-03T07:32:39;19.35;;;8.98;;
16770;SDS011;8503;52.472;13.344;2023-03-03T07:34:12;19.38;;;9.98;;
16770;SDS011;8503;52.472;13.344;2023-03-03T07:35:41;21.60;;;9.38;;
16770;SDS011;8503;52.472;13.344;2023-03-03T07:37:09;18.55;;;8.27;;
16770;SDS011;8503;52.472;13.344;2023-03-03T07:38:39;26.77;;;8.63;;
16770;SDS011;8503;52.472;13.344;2023-03-03T07:40:06;15.20;;;8.32;;
16770;SDS011;8503;52.472;13.344;2023-03-03T07:41:50;19.73;;;8.00;;
16770;SDS011;8503;52.472;13.344;2023-03-03T07:43:16;19.88;;;8.20;;
16770;SDS011;8503;52.472;13.344;2023-03-03T07:45:00;18.85;;;8.82;;
16770;SDS011;8503;52.472;13.344;2023-03-03T07:46:28;15.88;;;8.25;;
16770;SDS011;8503;52.472;13.344;2023-03-03T07:47:58;18.13;;;9.35;;
16770;SDS011;8503;52.472;13.344;2023-03-03T07:49:28;15.40;;;7.75;;
16770;SDS011;8503;52.472;13.344;2023-03-03T07:50:58;13.98;;;7.63;;
16770;SDS011;8503;52.472;13.344;2023-03-03T07:52:27;17.45;;;7.68;;
16770;SDS011;8503;52.472;13.344;2023-03-03T07:53:51;16.25;;;7.90;;
16770;SDS011;8503;52.472;13.344;2023-03-03T07:55:20;15.45;;;7.47;;
16770;SDS011;8503;52.472;13.344;2023-03-03T07:56:47;14.15;;;7.65;;
16770;SDS011;8503;52.472;13.344;2023-03-03T07:58:14;15.88;;;7.22;;
16770;SDS011;8503;52.472;13.344;2023-03-03T07:59:44;13.68;;;6.05;;
16770;SDS011;8503;52.472;13.344;2023-03-03T08:02:53;14.77;;;6.68;;
16770;SDS011;8503;52.472;13.344;2023-03-03T08:04:21;16.58;;;7.32;;
16770;SDS011;8503;52.472;13.344;2023-03-03T08:05:46;14.63;;;7.13;;
16770;SDS011;8503;52.472;13.344;2023-03-03T08:07:12;15.75;;;7.45;;
16770;SDS011;8503;52.472;13.344;2023-03-03T08:08:39;14.35;;;7.10;;
16770;SDS011;8503;52.472;13.344;2023-03-03T08:10:06;13.05;;;6.30;;
16770;SDS011;8503;52.472;13.344;2023-03-03T08:11:52;14.93;;;7.13;;
16770;SDS011;8503;52.472;13.344;2023-03-03T08:13:18;14.77;;;6.97;;
16770;SDS011;8503;52.472;13.344;2023-03-03T08:14:43;15.02;;;7.47;;
16770;SDS011;8503;52.472;13.344;2023-03-03T08:16:17;13.05;;;6.45;;
16770;SDS011;8503;52.472;13.344;2023-03-03T08:17:46;13.40;;;7.15;;
16770;SDS011;8503;52.472;13.344;2023-03-03T08:19:10;14.32;;;7.60;;
16770;SDS011;8503;52.472;13.344;2023-03-03T08:20:48;15.55;;;7.50;;
16770;SDS011;8503;52.472;13.344;2023-03-03T08:22:15;15.63;;;7.85;;
16770;SDS011;8503;52.472;13.344;2023-03-03T08:23:40;16.20;;;7.70;;
16770;SDS011;8503;52.472;13.344;2023-03-03T08:25:05;15.15;;;7.35;;
16770;SDS011;8503;52.472;13.344;2023-03-03T08:26:30;18.33;;;8.70;;
16770;SDS011;8503;52.472;13.344;2023-03-03T08:27:53;13.95;;;7.55;;
16770;SDS011;8503;52.472;13.344;2023-03-03T08:29:17;14.23;;;7.25;;
16770;SDS011;8503;52.472;13.344;2023-03-03T08:30:40;13.50;;;6.85;;
16770;SDS011;8503;52.472;13.344;2023-03-03T08:32:04;14.75;;;7.50;;
16770;SDS011;8503;52.472;13.344;2023-03-03T08:33:28;13.98;;;6.75;;
16770;SDS011;8503;52.472;13.344;2023-03-03T08:34:51;13.55;;;6.32;;
16770;SDS011;8503;52.472;13.344;2023-03-03T08:36:15;11.57;;;6.05;;
16770;SDS011;8503;52.472;13.344;2023-03-03T08:37:39;10.90;;;6.00;;
16770;SDS011;8503;52.472;13.344;2023-03-03T08:39:03;13.40;;;5.93;;
16770;SDS011;8503;52.472;13.344;2023-03-03T08:40:26;13.93;;;7.30;;
16770;SDS011;8503;52.472;13.344;2023-03-03T08:41:50;14.77;;;7.20;;
16770;SDS011;8503;52.472;13.344;2023-03-03T08:43:13;13.80;;;6.97;;
16770;SDS011;8503;52.472;13.344;2023-03-03T08:44:41;18.02;;;7.30;;
16770;SDS011;8503;52.472;13.344;2023-03-03T08:46:05;13.65;;;6.78;;
16770;SDS011;8503;52.472;13.344;2023-03-03T08:47:30;15.80;;;7.22;;
16770;SDS011;8503;52.472;13.344;2023-03-03T08:48:54;13.02;;;7.15;;
16770;SDS011;8503;52.472;13.344;2023-03-03T08:50:17;8.77;;;5.00;;
16770;SDS011;8503;52.472;13.344;2023-03-03T08:51:41;10.98;;;5.68;;